Portada
METAR-TAF:

METAR-TAF

Aeroports :

Campos dos Goytacazes, Rio de Janeiro, Brasil

latitud: 21-45S, longitud: 041-20W, altitud: 11 m

Observació

L'informe es va fer fa 56 minuts, a les 22:00 UTC
Vent calma
Temperatura 20°C
Humitat 88%
Pressió 1023 hPa
Visibilitat 10 km o més
sense núvols per sota de 1500 mi sense presència de cumulonimbus.

METAR: SBCP 242200Z 00000KT CAVOK 20/18 Q1023

Hora: 19:56 (22:56 UTC)

Pronòstic

L'informe es va fer fa 7 hores i 56 minuts, a les 15:00 UTC
Pronòstic vàlid del 24 a les 18 UTC al 25 a les 06 UTC
Vent 10 kt del Sud
Visibilitat 10 km o més
Probabilitat 30%
l' 24 a les 18 UTC al 24 a les 21 UTC
Visibilitat: 4000 m
Cel ennuvolat a una alçada de 1200 ft
pluja, boirina
Evolucionant progressivament
l' 25 a les 00 UTC al 25 a les 02 UTC
Vent 5 kt del Sud/Sud-Oest
Núvols disperses a una alçada de 2000 ft

TAF: SBCP 241500Z 2418/2506 18010KT 9999 BKN020TX22/2418Z TN18/2423Z PROB30 2418/2421 4000 RA BR BKN012 BECMG 2500/2502 20005KT SCT020 RMK PFV

Observacions i pronòstics meteorològics de més de 4000 aeroports (METAR i TAF).

Les estacions disponibles són els punts grocs i vermells al mapa.

Posi el ratolí al punt desitjat per veure el nom de l'estació.

Feu clic per veure les observacions i els pronòstics meteorològics.

Per canviar el mapa: feu clic els botons verds amb una creu de color negre per apropar; al botó verd amb un guió per allunyar la imatge; o en les fletxes verdes per a mapes adjacents.


METAR-TAF: